Terminal Aerodrome Forecast
Issued by NWS Tampa Bay Area, FL

Home | Current Version | Previous Version | Text Only | Print | Product List | Glossary On
Versions: 1 2 3 4 5 6 7 8 9 10 11 12 13 14
000
FTUS42 KTBW 012300
TAFSRQ
TAF
KSRQ 012327Z 0200/0224 19010KT P6SM FEW050 SCT250
     FM020800 16011KT P6SM SCT015 BKN035
     FM021300 22012G21KT P6SM VCSH SCT015 BKN025
     FM022000 33015G22KT P6SM OVC050=

USA.gov is the U.S. government's official web portal to all federal, state and local government web resources and services.